Time;durP1;ratioP1;P1;durP2;ratioP2;P2;SDS_P1;SDS_P2;PMS_P1;PMS_P2;Temp;Humidity;BMP_temperature;BMP_pressure;BME280_temperature;BME280_humidity;BME280_pressure;Samples;Min_cycle;Max_cycle;Signal;HPM_P1;HPM_P2
2021/12/04 00:02:01;;;;;;;1.73;1.52;;;22.00;45.00;;;;;;5032177;28;20211;-67
2021/12/04 00:04:32;;;;;;;1.77;1.55;;;22.00;45.10;;;;;;5033260;28;20176;-67
2021/12/04 00:06:58;;;;;;;1.52;1.42;;;22.00;45.10;;;;;;5032112;28;20209;-67
2021/12/04 00:09:25;;;;;;;2.75;1.42;;;22.00;45.00;;;;;;5048386;28;20265;-67
2021/12/04 00:11:54;;;;;;;2.83;1.73;;;22.00;45.10;;;;;;5031988;28;20206;-66
2021/12/04 00:14:20;;;;;;;1.50;1.40;;;22.00;44.90;;;;;;5032985;28;20182;-67
2021/12/04 00:16:46;;;;;;;1.70;1.40;;;22.00;44.80;;;;;;5048410;28;20179;-67
2021/12/04 00:19:12;;;;;;;1.45;1.35;;;22.00;44.90;;;;;;5048157;28;20645;-67
2021/12/04 00:21:38;;;;;;;2.10;1.70;;;22.00;45.00;;;;;;5048411;28;20278;-67
2021/12/04 00:24:04;;;;;;;1.42;1.33;;;22.00;45.00;;;;;;5032880;28;20159;-67
2021/12/04 00:26:30;;;;;;;1.55;1.45;;;22.00;45.00;;;;;;5048467;28;20187;-67
2021/12/04 00:28:56;;;;;;;1.45;1.35;;;22.00;44.90;;;;;;5031471;28;20198;-67
2021/12/04 00:31:22;;;;;;;1.63;1.48;;;22.00;45.00;;;;;;5048461;28;20207;-66
2021/12/04 00:33:49;;;;;;;1.65;1.52;;;22.00;45.10;;;;;;5031489;28;20233;-67
2021/12/04 00:49:47;;;;;;;1.63;1.38;;;22.00;44.80;;;;;;5047807;28;20618;-67
2021/12/04 00:52:14;;;;;;;1.35;1.20;;;22.00;44.90;;;;;;5031476;28;20207;-66
2021/12/04 00:54:39;;;;;;;1.27;1.17;;;22.00;44.90;;;;;;5047897;28;20683;-67
2021/12/04 00:57:06;;;;;;;1.50;1.40;;;22.00;45.00;;;;;;5032316;28;20183;-67
2021/12/04 00:59:31;;;;;;;1.40;1.30;;;22.00;45.00;;;;;;5047754;28;20179;-67
2021/12/04 01:01:57;;;;;;;1.77;1.50;;;22.00;45.60;;;;;;5031429;28;20280;-68
2021/12/04 01:04:24;;;;;;;1.50;1.40;;;22.00;45.00;;;;;;5031261;28;20178;-67
2021/12/04 01:06:50;;;;;;;1.40;1.30;;;22.00;45.00;;;;;;5047798;28;20229;-67
2021/12/04 01:09:21;;;;;;;1.20;1.10;;;22.00;45.00;;;;;;5030541;28;20237;-66
2021/12/04 01:11:49;;;;;;;1.27;1.17;;;22.00;45.00;;;;;;5031406;28;20242;-67
2021/12/04 01:14:19;;;;;;;1.15;1.10;;;22.00;45.00;;;;;;5047702;28;20612;-67
2021/12/04 01:16:46;;;;;;;1.40;1.30;;;22.00;45.00;;;;;;5047538;28;20253;-67
2021/12/04 01:19:15;;;;;;;1.45;1.33;;;22.00;45.00;;;;;;5047674;28;20183;-67
2021/12/04 01:21:42;;;;;;;1.05;1.05;;;22.00;45.00;;;;;;5047722;28;20199;-66
2021/12/04 01:24:08;;;;;;;1.40;1.30;;;22.00;45.00;;;;;;5031099;28;20187;-67
2021/12/04 01:26:34;;;;;;;1.20;1.10;;;22.00;45.00;;;;;;5030970;28;20215;-67
2021/12/04 01:29:00;;;;;;;1.95;1.38;;;22.00;44.90;;;;;;5047642;28;20282;-66
2021/12/04 01:31:26;;;;;;;1.30;1.20;;;22.00;45.00;;;;;;5030758;28;20274;-66
2021/12/04 01:33:52;;;;;;;1.30;1.20;;;22.00;44.80;;;;;;5031182;28;20175;-66
2021/12/04 01:36:18;;;;;;;2.10;1.40;;;22.00;44.80;;;;;;5030796;28;20214;-67
2021/12/04 01:38:44;;;;;;;1.33;1.20;;;22.00;44.80;;;;;;5047229;28;20180;-66
2021/12/04 01:41:10;;;;;;;1.55;1.40;;;22.00;44.70;;;;;;5014345;28;20282;-66
2021/12/04 01:43:36;;;;;;;1.20;1.10;;;22.00;44.90;;;;;;5014154;28;20231;-67
2021/12/04 01:46:02;;;;;;;1.38;1.27;;;22.00;45.00;;;;;;5030804;28;20187;-67
2021/12/04 01:48:28;;;;;;;1.25;1.13;;;22.00;44.80;;;;;;5047235;28;20187;-67
2021/12/04 01:50:55;;;;;;;1.17;1.08;;;22.00;44.80;;;;;;5014589;28;20195;-66
2021/12/04 01:53:22;;;;;;;1.42;1.33;;;22.00;44.90;;;;;;5030577;28;20309;-67
2021/12/04 01:55:57;;;;;;;1.65;1.15;;;22.00;45.00;;;;;;5030741;28;20211;-66
2021/12/04 01:58:25;;;;;;;1.50;1.30;;;22.00;45.00;;;;;;5047138;28;20242;-66
2021/12/04 02:00:52;;;;;;;1.10;1.00;;;22.00;45.00;;;;;;5047566;28;20180;-66
2021/12/04 02:03:19;;;;;;;0.80;0.80;;;22.00;45.00;;;;;;5030600;28;20203;-67
2021/12/04 02:05:47;;;;;;;1.35;1.20;;;22.00;45.00;;;;;;5014157;28;20221;-67
2021/12/04 02:08:20;;;;;;;1.13;1.02;;;22.00;45.60;;;;;;5047185;28;20191;-67
2021/12/04 02:10:50;;;;;;;1.20;1.10;;;22.00;45.00;;;;;;5030710;28;20195;-67
2021/12/04 02:13:18;;;;;;;1.40;1.30;;;22.00;44.90;;;;;;5030450;28;20214;-67
2021/12/04 02:15:46;;;;;;;1.50;1.05;;;22.00;44.80;;;;;;5031671;28;20230;-67
2021/12/04 02:18:14;;;;;;;1.20;1.05;;;22.00;44.80;;;;;;5046975;28;20176;-67
2021/12/04 02:20:40;;;;;;;1.42;1.33;;;22.00;44.90;;;;;;5031911;28;20184;-67
2021/12/04 02:23:09;;;;;;;0.82;0.82;;;22.00;44.90;;;;;;5050445;28;20243;-67
2021/12/04 02:25:37;;;;;;;1.38;1.15;;;22.00;44.90;;;;;;5033850;28;20202;-67
2021/12/04 02:28:05;;;;;;;2.20;1.08;;;22.00;44.90;;;;;;5017422;28;20226;-66
2021/12/04 02:30:36;;;;;;;1.00;0.95;;;22.00;44.90;;;;;;5017369;28;20669;-66
2021/12/04 02:33:11;;;;;;;1.23;1.15;;;22.00;44.80;;;;;;5034972;28;20277;-67
2021/12/04 02:35:51;;;;;;;0.90;0.90;;;22.00;45.00;;;;;;5033713;28;20207;-66
2021/12/04 02:38:22;;;;;;;0.90;0.90;;;22.00;45.00;;;;;;5033465;28;20190;-66
2021/12/04 02:40:53;;;;;;;0.90;0.90;;;22.00;45.00;;;;;;5034861;28;20175;-67
2021/12/04 02:43:19;;;;;;;1.20;1.10;;;22.00;45.00;;;;;;5033659;28;20257;-66
2021/12/04 02:45:45;;;;;;;1.10;1.10;;;22.00;45.00;;;;;;5033643;28;20658;-67
2021/12/04 02:48:12;;;;;;;1.10;1.10;;;22.00;44.90;;;;;;5017172;28;20202;-66
2021/12/04 02:50:39;;;;;;;1.38;1.27;;;22.00;44.90;;;;;;5033533;28;20684;-67
2021/12/04 02:53:05;;;;;;;1.15;1.15;;;22.00;44.90;;;;;;5033391;28;20238;-66
2021/12/04 02:55:31;;;;;;;1.02;1.00;;;22.00;45.00;;;;;;5050006;28;20218;-67
2021/12/04 02:57:56;;;;;;;1.30;1.00;;;22.00;45.00;;;;;;5049720;28;20183;-66
2021/12/04 03:00:25;;;;;;;0.98;0.98;;;22.00;44.90;;;;;;5034514;28;20183;-67
2021/12/04 03:02:52;;;;;;;0.90;0.90;;;22.00;45.00;;;;;;5033290;28;20572;-66
2021/12/04 03:05:26;;;;;;;0.85;0.85;;;22.00;45.00;;;;;;5033308;28;20172;-67
2021/12/04 03:07:55;;;;;;;1.20;1.10;;;22.00;44.90;;;;;;5033317;28;20179;-66
2021/12/04 03:10:22;;;;;;;0.80;0.80;;;22.00;44.90;;;;;;5033375;28;20188;-66
2021/12/04 03:12:48;;;;;;;0.90;0.90;;;22.00;45.00;;;;;;5049515;28;20203;-67
2021/12/04 03:15:16;;;;;;;0.88;0.88;;;22.00;45.00;;;;;;5034047;28;20238;-67
2021/12/04 03:17:42;;;;;;;1.05;0.95;;;22.00;45.00;;;;;;5016365;28;20670;-67
2021/12/04 03:20:11;;;;;;;0.80;0.80;;;22.00;45.10;;;;;;5046261;28;20176;-67
2021/12/04 03:22:40;;;;;;;1.00;0.90;;;22.00;45.00;;;;;;5013768;28;20214;-67
2021/12/04 03:25:06;;;;;;;0.90;0.90;;;22.00;45.10;;;;;;5046273;28;20283;-67
2021/12/04 03:27:33;;;;;;;0.90;0.70;;;22.00;45.00;;;;;;5030992;28;20187;-66
2021/12/04 03:30:04;;;;;;;0.90;0.90;;;22.00;45.10;;;;;;5032588;28;20180;-66
2021/12/04 03:40:49;;;;;;;0.90;0.90;;;22.00;44.90;;;;;;5033793;28;20184;-66
2021/12/04 03:43:15;;;;;;;0.85;0.85;;;22.00;45.00;;;;;;5032461;28;20214;-66
2021/12/04 03:45:44;;;;;;;0.68;0.68;;;22.00;45.10;;;;;;5049292;28;20187;-66
2021/12/04 03:48:49;;;;;;;0.70;0.70;;;22.00;45.10;;;;;;5032468;28;20187;-66
2021/12/04 03:51:14;;;;;;;0.80;0.80;;;22.00;45.10;;;;;;5032194;28;20676;-67
2021/12/04 03:53:40;;;;;;;0.70;0.70;;;22.00;45.10;;;;;;5032289;28;20231;-67
2021/12/04 03:56:06;;;;;;;0.80;0.80;;;22.00;45.00;;;;;;5016046;28;20237;-67
2021/12/04 03:58:33;;;;;;;0.70;0.70;;;22.00;45.00;;;;;;5015564;28;20270;-67
2021/12/04 04:00:58;;;;;;;0.80;0.80;;;22.10;45.10;;;;;;5015782;28;20187;-66
2021/12/04 04:03:27;;;;;;;1.00;1.00;;;22.00;45.10;;;;;;5032488;28;20209;-67
2021/12/04 04:05:54;;;;;;;0.88;0.88;;;22.10;45.10;;;;;;5015501;28;20253;-67
2021/12/04 04:08:21;;;;;;;0.65;0.65;;;22.00;45.00;;;;;;5015333;28;20183;-66
2021/12/04 04:10:49;;;;;;;0.70;0.70;;;22.00;45.00;;;;;;5031948;28;20185;-66
2021/12/04 04:13:15;;;;;;;0.73;0.73;;;22.00;44.90;;;;;;5031894;28;20588;-66
2021/12/04 04:15:41;;;;;;;0.63;0.63;;;22.00;45.00;;;;;;5048772;28;20215;-66
2021/12/04 04:18:08;;;;;;;0.88;0.70;;;22.00;45.10;;;;;;5031999;28;20183;-66
2021/12/04 04:20:34;;;;;;;0.90;0.80;;;22.00;45.10;;;;;;5032110;28;20190;-67
2021/12/04 04:22:59;;;;;;;0.80;0.70;;;22.00;45.10;;;;;;5051095;22;20318;-68
2021/12/04 04:25:25;;;;;;;0.70;0.70;;;22.00;45.10;;;;;;5015342;28;20278;-69
2021/12/04 04:27:51;;;;;;;0.80;0.80;;;22.10;45.20;;;;;;5014966;28;20622;-69
2021/12/04 04:30:19;;;;;;;0.57;0.57;;;22.00;45.10;;;;;;5006932;28;20199;-69
2021/12/04 04:32:47;;;;;;;0.65;0.65;;;22.00;45.10;;;;;;5055916;28;20203;-69
2021/12/04 04:35:19;;;;;;;0.70;0.70;;;22.10;45.20;;;;;;5051732;28;20702;-69
2021/12/04 05:00:09;;;;;;;1.77;0.60;;;22.10;45.30;;;;;;5039408;28;20257;-69
2021/12/04 05:18:09;;;;;;;0.70;0.70;;;22.00;45.20;;;;;;5050749;28;20225;-69
2021/12/04 05:20:38;;;;;;;0.50;0.50;;;22.00;45.10;;;;;;5050886;28;20269;-69
2021/12/04 05:23:10;;;;;;;0.50;0.50;;;22.00;45.20;;;;;;5050841;28;20209;-69
2021/12/04 05:25:37;;;;;;;0.50;0.50;;;22.00;45.10;;;;;;5052092;28;20182;-69
2021/12/04 05:28:05;;;;;;;0.60;0.60;;;22.00;45.20;;;;;;5050686;28;20182;-69
2021/12/04 05:30:31;;;;;;;0.45;0.45;;;22.00;45.20;;;;;;5039129;28;20186;-69
2021/12/04 05:32:58;;;;;;;0.52;0.52;;;22.00;45.20;;;;;;5032060;28;20230;-69
2021/12/04 05:35:25;;;;;;;0.70;0.70;;;22.00;45.20;;;;;;5014628;28;20243;-69
2021/12/04 05:37:52;;;;;;;0.57;0.57;;;22.00;45.20;;;;;;5030554;28;20190;-69
2021/12/04 05:40:18;;;;;;;0.40;0.40;;;22.10;45.30;;;;;;5030886;28;20219;-69
2021/12/04 05:42:45;;;;;;;0.50;0.50;;;22.00;45.20;;;;;;5030821;28;20233;-69
2021/12/04 05:45:18;;;;;;;0.60;0.60;;;22.00;45.30;;;;;;5032240;28;20187;-69
2021/12/04 05:55:41;;;;;;;0.47;0.47;;;22.00;45.30;;;;;;5034189;28;20213;-68
2021/12/04 05:58:07;;;;;;;0.95;0.50;;;22.00;45.20;;;;;;5034538;28;20191;-69
2021/12/04 06:00:33;;;;;;;0.50;0.50;;;22.00;45.30;;;;;;5046047;28;20232;-68
2021/12/04 06:02:58;;;;;;;0.45;0.45;;;22.00;45.30;;;;;;5054291;28;20198;-69
2021/12/04 06:05:24;;;;;;;0.60;0.60;;;22.00;45.20;;;;;;5054349;28;20182;-69
2021/12/04 06:07:50;;;;;;;0.47;0.47;;;22.00;45.30;;;;;;5070832;28;20190;-69
2021/12/04 06:10:16;;;;;;;0.40;0.40;;;22.00;45.30;;;;;;5054207;28;20192;-69
2021/12/04 06:12:41;;;;;;;0.50;0.50;;;22.00;45.30;;;;;;5054075;28;20286;-70
2021/12/04 06:15:08;;;;;;;0.50;0.50;;;22.00;45.30;;;;;;5053995;28;20633;-69
2021/12/04 06:17:34;;;;;;;0.75;0.50;;;22.00;45.30;;;;;;5054070;28;20187;-69
2021/12/04 06:22:44;;;;;;;0.40;0.40;;;22.00;45.30;;;;;;5055071;28;20289;-69
2021/12/04 06:25:19;;;;;;;0.40;0.40;;;22.00;45.30;;;;;;5053896;28;20167;-69
2021/12/04 06:27:46;;;;;;;0.45;0.40;;;22.00;45.30;;;;;;5048329;28;20198;-69
2021/12/04 06:30:18;;;;;;;0.60;0.60;;;22.00;45.30;;;;;;5043307;28;20187;-69
2021/12/04 06:32:48;;;;;;;0.40;0.40;;;22.00;45.20;;;;;;5053804;28;20210;-69
2021/12/04 06:35:18;;;;;;;0.50;0.50;;;22.00;45.20;;;;;;5036981;28;20206;-69
2021/12/04 06:37:46;;;;;;;1.15;0.50;;;22.00;45.20;;;;;;5054720;28;20194;-68
2021/12/04 06:40:12;;;;;;;0.50;0.50;;;22.10;45.40;;;;;;5053521;28;20675;-69
2021/12/04 06:42:41;;;;;;;0.40;0.40;;;22.10;45.30;;;;;;5053656;28;20194;-69
2021/12/04 06:45:08;;;;;;;0.40;0.40;;;22.00;45.30;;;;;;5037213;28;20190;-69
2021/12/04 06:47:36;;;;;;;0.38;0.38;;;22.00;45.40;;;;;;5053576;28;20178;-69
2021/12/04 06:50:07;;;;;;;0.43;0.43;;;22.00;45.30;;;;;;5053696;28;20236;-69
2021/12/04 06:52:34;;;;;;;0.50;0.50;;;22.10;45.40;;;;;;5054545;28;20210;-69
2021/12/04 06:55:02;;;;;;;0.40;0.40;;;22.10;45.40;;;;;;5054356;28;20299;-69
2021/12/04 06:57:29;;;;;;;0.50;0.50;;;22.10;45.40;;;;;;5033717;28;20191;-69
2021/12/04 06:59:56;;;;;;;0.60;0.60;;;22.00;45.40;;;;;;5042745;28;20250;-69
2021/12/04 07:02:22;;;;;;;0.57;0.57;;;22.10;45.50;;;;;;5033242;28;20257;-69
2021/12/04 07:04:48;;;;;;;0.40;0.40;;;22.10;45.50;;;;;;5033066;28;20195;-71
2021/12/04 07:07:16;;;;;;;0.30;0.30;;;22.10;45.40;;;;;;5048971;28;20191;-72
2021/12/04 07:09:43;;;;;;;0.60;0.60;;;22.10;45.50;;;;;;5049590;28;20241;-69
2021/12/04 07:12:11;;;;;;;0.40;0.40;;;22.10;45.50;;;;;;5016645;28;20222;-69
2021/12/04 07:14:37;;;;;;;0.50;0.50;;;22.00;45.50;;;;;;5034217;28;20187;-69
2021/12/04 07:17:04;;;;;;;0.50;0.50;;;22.10;45.50;;;;;;5049914;28;20218;-69
2021/12/04 07:19:31;;;;;;;0.50;0.50;;;22.10;45.40;;;;;;5032772;28;20209;-69
2021/12/04 07:21:57;;;;;;;0.40;0.40;;;22.00;45.40;;;;;;5033074;28;20179;-68
2021/12/04 07:24:26;;;;;;;0.50;0.50;;;22.10;45.40;;;;;;5032949;28;20195;-69
2021/12/04 07:26:52;;;;;;;0.50;0.50;;;22.10;45.50;;;;;;5049396;28;20195;-68
2021/12/04 07:29:18;;;;;;;0.70;0.70;;;22.00;45.40;;;;;;5057131;28;20565;-69
2021/12/04 07:31:44;;;;;;;0.75;0.60;;;22.10;45.50;;;;;;5033429;28;20194;-69
2021/12/04 07:34:10;;;;;;;0.50;0.50;;;22.10;45.60;;;;;;5054575;28;20291;-68
2021/12/04 07:36:35;;;;;;;0.57;0.57;;;22.00;45.40;;;;;;5032418;28;20211;-68
2021/12/04 07:39:05;;;;;;;0.60;0.60;;;22.10;45.60;;;;;;5040063;28;20711;-69
2021/12/04 07:41:31;;;;;;;0.60;0.60;;;22.00;45.50;;;;;;5039099;28;20194;-69
2021/12/04 07:43:57;;;;;;;0.40;0.40;;;22.00;45.50;;;;;;5030561;28;20202;-69
2021/12/04 07:46:23;;;;;;;0.60;0.52;;;22.00;45.50;;;;;;5040530;28;20194;-68
2021/12/04 07:48:49;;;;;;;0.50;0.50;;;22.10;45.60;;;;;;5032290;28;20191;-68
2021/12/04 07:51:18;;;;;;;0.50;0.50;;;22.10;45.60;;;;;;5015817;28;20187;-69
2021/12/04 07:53:47;;;;;;;0.60;0.60;;;22.10;46.20;;;;;;5015700;28;20192;-69
2021/12/04 07:56:16;;;;;;;0.50;0.50;;;22.00;45.50;;;;;;5023776;28;20218;-68
2021/12/04 07:58:43;;;;;;;0.40;0.40;;;22.10;45.60;;;;;;5015908;28;20183;-68
2021/12/04 08:01:12;;;;;;;1.00;0.60;;;22.10;45.60;;;;;;5033321;28;20187;-69
2021/12/04 08:03:38;;;;;;;0.40;0.40;;;22.00;46.20;;;;;;5032326;28;20207;-69
2021/12/04 08:06:05;;;;;;;0.57;0.57;;;22.10;45.60;;;;;;5005101;28;20191;-69
2021/12/04 08:08:31;;;;;;;0.50;0.50;;;22.10;45.50;;;;;;4996959;28;20655;-69
2021/12/04 08:10:57;;;;;;;0.55;0.55;;;22.10;45.60;;;;;;5012570;28;20246;-69
2021/12/04 08:13:23;;;;;;;0.50;0.50;;;22.10;45.50;;;;;;5012092;28;20211;-68
2021/12/04 08:15:49;;;;;;;0.55;0.55;;;22.00;45.50;;;;;;5044873;28;20211;-69
2021/12/04 08:18:15;;;;;;;0.60;0.60;;;22.10;45.60;;;;;;5010977;28;20291;-69
2021/12/04 08:20:41;;;;;;;0.60;0.60;;;22.10;45.60;;;;;;5030416;28;20207;-69
2021/12/04 08:23:07;;;;;;;0.63;0.63;;;22.10;45.50;;;;;;5031745;28;20207;-69
2021/12/04 08:25:34;;;;;;;0.55;0.55;;;22.10;45.60;;;;;;5031577;28;20258;-68
2021/12/04 08:28:01;;;;;;;0.50;0.50;;;22.10;45.60;;;;;;5031433;28;20187;-67
2021/12/04 08:30:31;;;;;;;0.50;0.50;;;22.00;45.50;;;;;;5031614;28;20190;-68
2021/12/04 08:32:57;;;;;;;0.50;0.50;;;22.10;45.60;;;;;;5028661;28;20683;-68
2021/12/04 08:35:26;;;;;;;0.40;0.40;;;22.10;45.60;;;;;;5031942;28;20310;-68
2021/12/04 08:37:57;;;;;;;0.60;0.60;;;22.10;45.60;;;;;;5031314;28;20191;-69
2021/12/04 08:40:28;;;;;;;0.50;0.50;;;22.10;45.60;;;;;;5031849;28;20206;-68
2021/12/04 08:42:55;;;;;;;0.70;0.70;;;22.10;45.70;;;;;;5031187;28;20195;-69
2021/12/04 08:45:22;;;;;;;0.60;0.60;;;22.10;45.70;;;;;;5031442;28;20202;-69
2021/12/04 08:47:48;;;;;;;0.63;0.63;;;22.10;45.70;;;;;;5014670;28;20186;-68
2021/12/04 08:50:19;;;;;;;0.68;0.68;;;22.10;45.70;;;;;;5031624;28;20198;-68
2021/12/04 08:52:46;;;;;;;0.60;0.60;;;22.10;45.70;;;;;;5015115;28;20207;-69
2021/12/04 08:55:13;;;;;;;0.50;0.50;;;22.10;45.70;;;;;;5031311;28;20294;-68
2021/12/04 08:57:39;;;;;;;0.68;0.68;;;22.10;45.70;;;;;;5030997;28;20183;-69
2021/12/04 09:00:34;;;;;;;0.40;0.40;;;22.10;45.50;;;;;;5032320;28;20176;-70
2021/12/04 09:03:01;;;;;;;0.60;0.60;;;22.10;45.70;;;;;;5021082;28;20694;-69
2021/12/04 09:05:28;;;;;;;0.82;0.73;;;22.10;45.60;;;;;;5031331;28;20262;-70
2021/12/04 09:07:54;;;;;;;0.70;0.70;;;22.10;45.70;;;;;;5032150;28;20187;-69
2021/12/04 09:10:21;;;;;;;0.70;0.70;;;22.10;46.30;;;;;;5030993;28;20325;-70
2021/12/04 09:12:48;;;;;;;0.60;0.60;;;22.10;45.70;;;;;;5047494;28;20678;-70
2021/12/04 09:15:21;;;;;;;0.70;0.70;;;22.10;45.70;;;;;;5038937;28;20267;-69
2021/12/04 09:17:47;;;;;;;0.60;0.60;;;22.10;45.70;;;;;;5031004;28;20187;-69
2021/12/04 09:20:15;;;;;;;0.50;0.50;;;22.10;45.70;;;;;;5023454;28;20180;-69
2021/12/04 09:22:41;;;;;;;0.60;0.60;;;22.20;45.80;;;;;;4994888;28;20208;-69
2021/12/04 09:25:21;;;;;;;0.60;0.60;;;22.20;45.80;;;;;;5011334;28;20177;-69
2021/12/04 10:06:19;;;;;;;0.73;0.70;;;22.10;45.80;;;;;;5034226;28;20187;-68
2021/12/04 10:33:17;;;;;;;0.82;0.60;;;22.20;46.10;;;;;;5085584;28;20239;-67
2021/12/04 10:35:46;;;;;;;0.60;0.60;;;22.20;46.10;;;;;;5077042;28;20188;-68
2021/12/04 10:38:25;;;;;;;0.60;0.50;;;22.20;46.10;;;;;;5059665;28;20180;-67
2021/12/04 10:40:54;;;;;;;0.60;0.50;;;22.10;46.00;;;;;;5076151;28;20199;-66
2021/12/04 10:43:27;;;;;;;0.57;0.57;;;22.20;46.10;;;;;;5089823;28;20205;-67
2021/12/04 10:45:59;;;;;;;0.90;0.90;;;22.20;46.80;;;;;;5056792;28;20246;-67
2021/12/04 10:48:31;;;;;;;0.80;0.80;;;22.10;46.10;;;;;;5074230;28;20178;-68
2021/12/04 10:51:23;;;;;;;1.27;0.88;;;22.20;46.20;;;;;;5087110;28;20705;-68
2021/12/04 10:53:51;;;;;;;0.75;0.50;;;22.20;46.20;;;;;;5089202;28;20209;-68
2021/12/04 10:56:37;;;;;;;0.60;0.60;;;22.10;46.20;;;;;;5073000;28;20687;-67
2021/12/04 11:07:16;;;;;;;0.60;0.60;;;22.20;46.20;;;;;;5063625;28;20183;-67
2021/12/04 11:21:36;;;;;;;0.52;0.52;;;22.20;46.30;;;;;;5062981;28;20216;-68
2021/12/04 11:43:15;;;;;;;0.70;0.70;;;22.30;46.50;;;;;;5061355;28;20258;-67
2021/12/04 11:46:20;;;;;;;0.77;0.65;;;22.20;46.40;;;;;;5056071;28;20190;-67
2021/12/04 11:48:46;;;;;;;0.70;0.70;;;22.20;47.00;;;;;;5071819;28;20197;-67
2021/12/04 11:51:26;;;;;;;1.25;0.70;;;22.30;46.40;;;;;;5072149;28;20182;-67
2021/12/04 11:53:55;;;;;;;0.70;0.70;;;22.20;46.40;;;;;;5082897;28;20208;-67
2021/12/04 11:56:29;;;;;;;0.98;0.70;;;22.30;46.50;;;;;;5066833;28;20272;-67
2021/12/04 11:58:55;;;;;;;1.10;1.00;;;22.30;46.50;;;;;;5043392;28;20186;-67
2021/12/04 12:01:31;;;;;;;0.70;0.70;;;22.30;46.50;;;;;;5058247;28;20313;-67
2021/12/04 12:04:04;;;;;;;1.17;0.82;;;22.30;46.60;;;;;;5083896;28;20196;-67
2021/12/04 12:06:40;;;;;;;0.70;0.70;;;22.30;46.60;;;;;;5073315;28;20169;-66
2021/12/04 12:09:18;;;;;;;0.60;0.60;;;22.30;46.60;;;;;;5055148;28;20188;-67
2021/12/04 12:12:04;;;;;;;0.60;0.60;;;22.30;46.60;;;;;;5055353;28;20533;-67
2021/12/04 12:14:53;;;;;;;0.60;0.60;;;22.30;46.50;;;;;;5087980;28;20212;-67
2021/12/04 12:17:34;;;;;;;1.00;0.90;;;22.30;46.60;;;;;;5093516;28;20180;-67
2021/12/04 12:20:03;;;;;;;0.85;0.85;;;22.30;46.60;;;;;;5066993;28;20264;-67
2021/12/04 12:23:09;;;;;;;0.70;0.70;;;22.30;46.60;;;;;;5055028;28;20246;-67
2021/12/04 12:31:53;;;;;;;0.70;0.70;;;22.30;46.70;;;;;;5072874;28;20166;-67
2021/12/04 12:37:25;;;;;;;0.57;0.57;;;22.30;46.80;;;;;;5054896;28;20256;-67
2021/12/04 12:40:09;;;;;;;0.80;0.80;;;22.30;46.70;;;;;;5045091;28;20185;-68
2021/12/04 12:42:41;;;;;;;0.60;0.60;;;22.30;46.70;;;;;;5085830;28;20196;-67
2021/12/04 12:45:35;;;;;;;0.93;0.93;;;22.30;46.70;;;;;;5056876;28;20271;-67
2021/12/04 12:48:04;;;;;;;0.65;0.65;;;22.30;46.80;;;;;;5064378;28;20253;-67
2021/12/04 12:50:38;;;;;;;0.50;0.50;;;22.30;46.70;;;;;;5054982;28;20182;-67
2021/12/04 12:53:25;;;;;;;1.30;0.70;;;22.30;46.70;;;;;;5082895;28;20913;-67
2021/12/04 12:56:04;;;;;;;0.75;0.60;;;22.30;46.70;;;;;;5069534;28;20223;-67
2021/12/04 12:58:54;;;;;;;0.77;0.57;;;22.30;46.70;;;;;;5074407;28;20177;-67
2021/12/04 13:12:51;;;;;;;0.50;0.50;;;22.30;46.90;;;;;;5074554;28;20204;-67
2021/12/04 13:15:39;;;;;;;0.88;0.80;;;22.30;47.00;;;;;;5057819;28;20235;-67
2021/12/04 13:18:17;;;;;;;1.25;0.95;;;22.30;47.00;;;;;;5075650;28;20636;-66
2021/12/04 13:20:46;;;;;;;0.50;0.50;;;22.30;47.00;;;;;;5068700;28;20201;-66
2021/12/04 13:23:16;;;;;;;0.70;0.70;;;22.30;47.00;;;;;;5042011;28;20213;-67
2021/12/04 13:26:11;;;;;;;2.08;0.80;;;22.30;47.10;;;;;;5067618;28;20264;-67
2021/12/04 13:28:49;;;;;;;0.90;0.70;;;22.30;47.10;;;;;;5065548;28;20201;-67
2021/12/04 13:31:19;;;;;;;0.60;0.60;;;22.30;47.10;;;;;;5037901;28;20201;-67
2021/12/04 13:33:50;;;;;;;0.65;0.65;;;22.30;47.10;;;;;;5070886;28;20259;-67
2021/12/04 13:36:27;;;;;;;0.80;0.80;;;22.20;47.00;;;;;;5074317;28;20228;-67
2021/12/04 13:39:20;;;;;;;0.77;0.75;;;22.20;47.00;;;;;;5057272;28;20183;-67
2021/12/04 13:41:49;;;;;;;0.60;0.60;;;22.30;47.10;;;;;;5088133;28;20262;-67
2021/12/04 13:44:18;;;;;;;0.65;0.65;;;22.30;47.10;;;;;;5072170;28;20204;-66
2021/12/04 13:46:53;;;;;;;0.95;0.85;;;22.20;47.00;;;;;;5062194;28;20276;-67
2021/12/04 13:49:31;;;;;;;0.70;0.70;;;22.30;47.20;;;;;;5067448;28;20192;-66
2021/12/04 13:52:07;;;;;;;0.90;0.63;;;22.30;47.10;;;;;;5051055;28;20272;-66
2021/12/04 13:54:45;;;;;;;0.70;0.70;;;22.30;47.10;;;;;;5066068;28;20226;-67
2021/12/04 13:57:14;;;;;;;0.60;0.60;;;22.30;47.10;;;;;;5073867;28;20196;-66
2021/12/04 13:59:42;;;;;;;0.98;0.80;;;22.30;47.20;;;;;;5074098;28;20177;-66
2021/12/04 14:02:23;;;;;;;0.60;0.60;;;22.20;47.10;;;;;;5083388;28;20265;-66
2021/12/04 14:05:04;;;;;;;0.80;0.80;;;22.20;47.10;;;;;;5053820;28;20177;-67
2021/12/04 14:07:31;;;;;;;0.73;0.70;;;22.20;47.10;;;;;;5070293;28;20329;-66
2021/12/04 14:09:58;;;;;;;0.80;0.70;;;22.30;47.20;;;;;;5068634;28;20180;-67
2021/12/04 14:12:29;;;;;;;0.70;0.70;;;22.20;47.10;;;;;;5073893;28;20187;-68
2021/12/04 14:14:54;;;;;;;0.65;0.65;;;22.20;47.10;;;;;;5057033;28;20242;-67
2021/12/04 14:17:20;;;;;;;0.70;0.70;;;22.30;47.20;;;;;;5077325;28;20181;-66
2021/12/04 14:19:46;;;;;;;1.17;0.70;;;22.30;47.20;;;;;;5060845;28;20242;-67
2021/12/04 14:22:18;;;;;;;0.70;0.70;;;22.30;47.20;;;;;;5060015;28;20189;-66
2021/12/04 14:24:56;;;;;;;0.70;0.70;;;22.20;47.20;;;;;;5075379;28;20208;-67
2021/12/04 14:27:29;;;;;;;0.60;0.60;;;22.20;47.20;;;;;;5051299;28;20675;-66
2021/12/04 14:30:01;;;;;;;0.95;0.73;;;22.20;47.20;;;;;;5077225;28;20238;-68
2021/12/04 14:32:32;;;;;;;1.40;0.80;;;22.20;47.20;;;;;;5078090;28;20184;-67
2021/12/04 14:35:04;;;;;;;0.75;0.75;;;22.20;47.20;;;;;;5091287;28;20185;-68
2021/12/04 14:37:37;;;;;;;1.25;0.50;;;22.20;47.30;;;;;;5074004;28;20182;-68
2021/12/04 14:40:05;;;;;;;0.60;0.60;;;22.30;47.40;;;;;;5067510;28;20181;-67
2021/12/04 14:42:34;;;;;;;1.20;0.50;;;22.20;47.30;;;;;;5068962;28;20219;-67
2021/12/04 14:45:10;;;;;;;0.80;0.80;;;22.20;47.30;;;;;;5069512;28;20231;-67
2021/12/04 14:47:47;;;;;;;0.50;0.50;;;22.20;47.30;;;;;;5072822;28;20220;-66
2021/12/04 14:50:18;;;;;;;1.15;0.70;;;22.20;47.30;;;;;;5085458;28;20177;-67
2021/12/04 14:52:54;;;;;;;1.27;0.65;;;22.20;47.30;;;;;;5062271;28;20248;-67
2021/12/04 14:55:29;;;;;;;0.63;0.63;;;22.20;47.30;;;;;;5052070;28;20229;-67
2021/12/04 14:57:56;;;;;;;0.60;0.60;;;22.20;47.30;;;;;;5059807;28;20183;-67
2021/12/04 15:00:30;;;;;;;0.82;0.82;;;22.20;47.30;;;;;;5073830;28;20181;-67
2021/12/04 15:03:02;;;;;;;0.60;0.52;;;22.20;47.30;;;;;;5056503;28;20209;-68
2021/12/04 15:05:36;;;;;;;0.63;0.60;;;22.20;47.40;;;;;;5055030;28;20191;-67
2021/12/04 15:08:33;;;;;;;0.68;0.60;;;22.20;47.40;;;;;;5060099;28;20178;-67
2021/12/04 15:11:09;;;;;;;1.27;0.40;;;22.20;47.40;;;;;;5077805;28;20660;-66
2021/12/04 15:13:50;;;;;;;0.70;0.70;;;22.20;47.40;;;;;;5065456;28;20209;-67
2021/12/04 15:16:19;;;;;;;0.57;0.57;;;22.20;47.40;;;;;;5073925;28;20237;-66
2021/12/04 15:18:44;;;;;;;0.70;0.60;;;22.20;47.40;;;;;;5047808;28;20216;-67
2021/12/04 15:21:15;;;;;;;0.50;0.50;;;22.20;47.40;;;;;;5053096;28;20208;-67
2021/12/04 15:23:42;;;;;;;1.30;0.95;;;22.20;47.40;;;;;;5068547;28;20212;-67
2021/12/04 15:26:20;;;;;;;0.80;0.80;;;22.20;47.40;;;;;;5091116;28;20181;-67
2021/12/04 15:28:51;;;;;;;0.70;0.70;;;22.20;47.40;;;;;;5055378;28;20185;-67
2021/12/04 15:31:21;;;;;;;0.73;0.70;;;22.20;47.40;;;;;;5081355;28;20275;-67
2021/12/04 15:33:51;;;;;;;0.80;0.65;;;22.20;47.50;;;;;;5049780;28;20266;-67
2021/12/04 15:36:39;;;;;;;0.80;0.80;;;22.20;47.50;;;;;;5073462;28;20686;-67
2021/12/04 15:39:14;;;;;;;0.68;0.60;;;22.20;47.50;;;;;;5084278;28;20200;-67
2021/12/04 15:54:34;;;;;;;1.05;0.80;;;22.20;47.40;;;;;;5074452;28;20292;-67
2021/12/04 15:57:09;;;;;;;0.60;0.60;;;22.30;47.60;;;;;;5067479;28;20224;-67
2021/12/04 15:59:35;;;;;;;3.10;0.73;;;22.20;47.50;;;;;;5038896;28;20181;-67
2021/12/04 16:02:15;;;;;;;0.80;0.65;;;22.20;47.50;;;;;;5081472;28;20189;-66
2021/12/04 16:04:44;;;;;;;0.80;0.80;;;22.20;47.50;;;;;;5062681;28;20178;-68
2021/12/04 16:07:25;;;;;;;0.77;0.73;;;22.30;47.60;;;;;;5063022;28;20181;-67
2021/12/04 16:09:51;;;;;;;0.68;0.68;;;22.30;47.60;;;;;;5058701;28;20192;-68
2021/12/04 16:12:22;;;;;;;1.17;0.80;;;22.20;47.50;;;;;;5065369;28;20185;-67
2021/12/04 16:14:57;;;;;;;0.68;0.65;;;22.20;47.60;;;;;;5059316;28;20652;-68
2021/12/04 16:17:24;;;;;;;0.70;0.70;;;22.20;47.50;;;;;;5058306;28;20204;-67
2021/12/04 16:20:02;;;;;;;0.80;0.80;;;22.30;47.70;;;;;;5068967;28;20170;-68
2021/12/04 16:22:35;;;;;;;1.70;0.68;;;22.20;47.60;;;;;;5066457;28;20180;-68
2021/12/04 16:25:04;;;;;;;0.80;0.80;;;22.20;47.60;;;;;;5216207;22;20309;-68
2021/12/04 16:27:33;;;;;;;0.85;0.80;;;22.20;47.60;;;;;;5074146;28;20208;-69
2021/12/04 16:30:12;;;;;;;1.15;0.80;;;22.20;47.60;;;;;;5074987;28;20185;-68